アラート の空港の天気 - METARとTAF

Alert Airport ( CYLT / YLT ) - カナダ ヌナブト準州アラート
飛行場実況気象(Metar)
観測時間08/13 16:00 EDT (08/13 20:00 UTC)
風向・風速北西 10m/s 瞬間風速13m/s
視程1200m
天気現象弱い雪
全天を覆う雲 鉛直視程 180m
気温0℃
湿度100%
気圧1002hPa
METARCYLT 132000Z CCA 31020G25KT 3/4SM -SN VV006 00/M00 A2958 RMK SN8 VIS VRB 1/2-1 CIG VRB 4-8 LAST OBS/NEXT 141100 UTC SLP020
過去の天気等 Google飛行場航空写真 Wunderground天気予報

過去48時間のMETAR

飛行場予報(TAF)
発表時間: 8/13 14:39 EDT (8/13 18:39 UTC)
予報対象時間: 13日14時 EDT ~ 14日2時 EDT
風向・風速北西 5m/s
視程10km以上
天気現象弱い雪
全天の4割程度の雲 雲底高度 180m
全天を覆う雲 雲底高度 370m
13日14時 EDT ~ 13日19時 EDT に一時的に
視程800m
天気現象弱い雪 霧
全天を覆う雲 鉛直視程 180m
13日19時 EDT から
風向・風速北西 5m/s
視程10km以上
全天の4割程度の雲 雲底高度 120m
全天の8割程度の雲 雲底高度 370m
全天を覆う雲 雲底高度 760m
13日19時 EDT ~ 14日2時 EDT に一時的に
視程1610m
天気現象弱い雪 もや
全天を覆う雲 雲底高度 120m
TAF AMD CYLT 131839Z 1318/1406 32010KT 6SM -SN SCT006 OVC012
TEMPO 1318/1323 1/2SM -SN FG VV006
FM132300 32010KT P6SM SCT004 BKN012 OVC025
TEMPO 1323/1406 1SM -SN BR OVC004 RMK NXT FCST BY 140000Z